Holly Ann — WDE9094 — position and weather

sailwx.info

Track history (hours):
 
Tides and Currents Weather Stations Pressure Air Temp Water Temp Dewpoint Dewpoint Depression Visibility Wind Speed Wind Dir Waves Ship Positions

Holly Ann

Owner: Manke Tug and Barge Co., Inc., Shelton, WA. More information available from US FCC via Universal Licensing System and Coast Guard Vessel Documentation Center.

Last reported at 2017-Jan-24 03:26 UTC. Time now 2017-Jan-24 17:20 UTC.
Position N 47°13' W 122°36'.

; draft 4.5 m.

Type: Towing. MMSI: 367413350.

Date/timePositionNaut miles runAvg speedWind from/ knotsBaromVisibWave heightAir tempDewpointWater temp
2017-Jan-24 03:26N 47°13' W 122°36'6 5.9
2017-Jan-24 02:27N 47°19' W 122°33'6 7.2
2017-Jan-24 01:33N 47°22' W 122°25'7 6.8
2017-Jan-24 00:33N 47°28' W 122°26'8 7.8
2017-Jan-23 23:33N 47°36' W 122°23'3 2.5
2017-Jan-23 22:33N 47°34' W 122°21'0 0.0
2017-Jan-23 21:33N 47°34' W 122°21'0 0.0
2017-Jan-23 20:33N 47°34' W 122°21'0 0.0
2017-Jan-23 19:33N 47°34' W 122°21'0 0.0
2017-Jan-23 18:33N 47°34' W 122°21'0 0.0
2017-Jan-23 17:33N 47°34' W 122°21'0 0.0
2017-Jan-23 16:33N 47°34' W 122°21'0 0.0
2017-Jan-23 15:33N 47°34' W 122°21'0 0.0
2017-Jan-23 14:33N 47°34' W 122°21'0 0.0
2017-Jan-23 13:33N 47°34' W 122°21'0 0.0
2017-Jan-23 12:33N 47°34' W 122°21'0 0.0
2017-Jan-23 11:33N 47°34' W 122°21'0 0.0
2017-Jan-23 10:33N 47°34' W 122°21'0 0.0
2017-Jan-23 09:33N 47°34' W 122°21'0 0.0
2017-Jan-23 08:33N 47°34' W 122°21'0 0.0
2017-Jan-23 07:33N 47°34' W 122°21'2 1.7
2017-Jan-23 06:33N 47°36' W 122°22'2 1.6
2017-Jan-23 05:33N 47°36' W 122°24'4 3.6
2017-Jan-23 04:33N 47°32' W 122°25'5 4.6
2017-Jan-23 03:33N 47°28' W 122°24'5 5.2
2017-Jan-23 02:33N 47°23' W 122°21'6 5.5
2017-Jan-23 01:33N 47°19' W 122°27'5 4.6
2017-Jan-23 00:33N 47°17' W 122°33'  
2017-Jan-18 02:05N 47°13' W 122°36'610.6
2017-Jan-18 01:33N 47°18' W 122°33'9 9.0
2017-Jan-18 00:33N 47°27' W 122°31'8 8.2
2017-Jan-17 23:34N 47°34' W 122°26'4 3.9
2017-Jan-17 22:33N 47°33' W 122°21'2 2.1
2017-Jan-17 21:33N 47°35' W 122°21'2 2.0
2017-Jan-17 20:33N 47°33' W 122°21'0 0.1
2017-Jan-17 19:34N 47°33' W 122°21'0 0.0
2017-Jan-17 18:34N 47°33' W 122°21'0 0.0
2017-Jan-17 17:33N 47°33' W 122°21'0 0.0
2017-Jan-17 16:34N 47°33' W 122°21'0 0.0
2017-Jan-17 15:34N 47°33' W 122°21'0 0.0
2017-Jan-17 14:34N 47°33' W 122°21'0 0.0
2017-Jan-17 13:33N 47°33' W 122°21'1 0.6
2017-Jan-17 12:33N 47°33' W 122°20'1 0.6
2017-Jan-17 11:34N 47°33' W 122°21'0 0.0
2017-Jan-17 10:34N 47°33' W 122°21'2 2.3
2017-Jan-17 09:33N 47°35' W 122°22'7 6.6
2017-Jan-17 08:33N 47°31' W 122°29'9 8.8
2017-Jan-17 07:33N 47°22' W 122°32'  
2017-Jan-14 23:24N 47°13' W 122°36'911.1
2017-Jan-14 22:33N 47°22' W 122°32'9 9.5
2017-Jan-14 21:33N 47°31' W 122°28'6 6.0
2017-Jan-14 20:33N 47°35' W 122°22'2 2.3
2017-Jan-14 19:33N 47°33' W 122°21'0 0.0
2017-Jan-14 18:33N 47°33' W 122°21'0 0.0
2017-Jan-14 17:33N 47°33' W 122°21'0 0.0
2017-Jan-14 16:33N 47°33' W 122°21'0 0.0
2017-Jan-14 15:33N 47°33' W 122°21'0 0.0
2017-Jan-14 14:33N 47°33' W 122°21'0 0.0
2017-Jan-14 13:33N 47°33' W 122°21'0 0.0
2017-Jan-14 12:33N 47°33' W 122°21'0 0.0
2017-Jan-14 11:33N 47°33' W 122°21'0 0.0
2017-Jan-14 10:33N 47°33' W 122°21'0 0.0
2017-Jan-14 09:33N 47°33' W 122°21'0 0.0
2017-Jan-14 08:33N 47°33' W 122°21'0 0.3
2017-Jan-14 07:33N 47°33' W 122°20'0 0.4
2017-Jan-14 06:33N 47°33' W 122°21'1 0.6
2017-Jan-14 05:33N 47°33' W 122°20'0 0.0
2017-Jan-14 04:33N 47°33' W 122°20'0 0.0
2017-Jan-14 03:33N 47°33' W 122°20'  
Track history (hours):
 
Tides and Currents Weather Stations Pressure Air Temp Water Temp Dewpoint Dewpoint Depression Visibility Wind Speed Wind Dir Waves Ship Positions

Holly Ann

Owner: Manke Tug and Barge Co., Inc., Shelton, WA. More information available from US FCC via Universal Licensing System and Coast Guard Vessel Documentation Center.

Last reported at 2017-Jan-24 03:26 UTC. Time now 2017-Jan-24 17:20 UTC.
Position N 47°13' W 122°36'.

; draft 4.5 m.

Type: Towing. MMSI: 367413350.

Date/timePositionNaut miles runAvg speedWind from/ knotsBaromVisibWave heightAir tempDewpointWater temp
2017-Jan-24 03:26N 47°13' W 122°36'6 5.9
2017-Jan-24 02:27N 47°19' W 122°33'6 7.2
2017-Jan-24 01:33N 47°22' W 122°25'7 6.8
2017-Jan-24 00:33N 47°28' W 122°26'8 7.8
2017-Jan-23 23:33N 47°36' W 122°23'3 2.5
2017-Jan-23 22:33N 47°34' W 122°21'0 0.0
2017-Jan-23 21:33N 47°34' W 122°21'0 0.0
2017-Jan-23 20:33N 47°34' W 122°21'0 0.0
2017-Jan-23 19:33N 47°34' W 122°21'0 0.0
2017-Jan-23 18:33N 47°34' W 122°21'0 0.0
2017-Jan-23 17:33N 47°34' W 122°21'0 0.0
2017-Jan-23 16:33N 47°34' W 122°21'0 0.0
2017-Jan-23 15:33N 47°34' W 122°21'0 0.0
2017-Jan-23 14:33N 47°34' W 122°21'0 0.0
2017-Jan-23 13:33N 47°34' W 122°21'0 0.0
2017-Jan-23 12:33N 47°34' W 122°21'0 0.0
2017-Jan-23 11:33N 47°34' W 122°21'0 0.0
2017-Jan-23 10:33N 47°34' W 122°21'0 0.0
2017-Jan-23 09:33N 47°34' W 122°21'0 0.0
2017-Jan-23 08:33N 47°34' W 122°21'0 0.0
2017-Jan-23 07:33N 47°34' W 122°21'2 1.7
2017-Jan-23 06:33N 47°36' W 122°22'2 1.6
2017-Jan-23 05:33N 47°36' W 122°24'4 3.6
2017-Jan-23 04:33N 47°32' W 122°25'5 4.6
2017-Jan-23 03:33N 47°28' W 122°24'5 5.2
2017-Jan-23 02:33N 47°23' W 122°21'6 5.5
2017-Jan-23 01:33N 47°19' W 122°27'5 4.6
2017-Jan-23 00:33N 47°17' W 122°33'  
2017-Jan-18 02:05N 47°13' W 122°36'610.6
2017-Jan-18 01:33N 47°18' W 122°33'9 9.0
2017-Jan-18 00:33N 47°27' W 122°31'8 8.2
2017-Jan-17 23:34N 47°34' W 122°26'4 3.9
2017-Jan-17 22:33N 47°33' W 122°21'2 2.1
2017-Jan-17 21:33N 47°35' W 122°21'2 2.0
2017-Jan-17 20:33N 47°33' W 122°21'0 0.1
2017-Jan-17 19:34N 47°33' W 122°21'0 0.0
2017-Jan-17 18:34N 47°33' W 122°21'0 0.0
2017-Jan-17 17:33N 47°33' W 122°21'0 0.0
2017-Jan-17 16:34N 47°33' W 122°21'0 0.0
2017-Jan-17 15:34N 47°33' W 122°21'0 0.0
2017-Jan-17 14:34N 47°33' W 122°21'0 0.0
2017-Jan-17 13:33N 47°33' W 122°21'1 0.6
2017-Jan-17 12:33N 47°33' W 122°20'1 0.6
2017-Jan-17 11:34N 47°33' W 122°21'0 0.0
2017-Jan-17 10:34N 47°33' W 122°21'2 2.3
2017-Jan-17 09:33N 47°35' W 122°22'7 6.6
2017-Jan-17 08:33N 47°31' W 122°29'9 8.8
2017-Jan-17 07:33N 47°22' W 122°32'  
2017-Jan-14 23:24N 47°13' W 122°36'911.1
2017-Jan-14 22:33N 47°22' W 122°32'9 9.5
2017-Jan-14 21:33N 47°31' W 122°28'6 6.0
2017-Jan-14 20:33N 47°35' W 122°22'2 2.3
2017-Jan-14 19:33N 47°33' W 122°21'0 0.0
2017-Jan-14 18:33N 47°33' W 122°21'0 0.0
2017-Jan-14 17:33N 47°33' W 122°21'0 0.0
2017-Jan-14 16:33N 47°33' W 122°21'0 0.0
2017-Jan-14 15:33N 47°33' W 122°21'0 0.0
2017-Jan-14 14:33N 47°33' W 122°21'0 0.0
2017-Jan-14 13:33N 47°33' W 122°21'0 0.0
2017-Jan-14 12:33N 47°33' W 122°21'0 0.0
2017-Jan-14 11:33N 47°33' W 122°21'0 0.0
2017-Jan-14 10:33N 47°33' W 122°21'0 0.0
2017-Jan-14 09:33N 47°33' W 122°21'0 0.0
2017-Jan-14 08:33N 47°33' W 122°21'0 0.3
2017-Jan-14 07:33N 47°33' W 122°20'0 0.4
2017-Jan-14 06:33N 47°33' W 122°21'1 0.6
2017-Jan-14 05:33N 47°33' W 122°20'0 0.0
2017-Jan-14 04:33N 47°33' W 122°20'0 0.0
2017-Jan-14 03:33N 47°33' W 122°20'  

Dump ship's entire track history